sensor_id;sensor_type;location;lat;lon;timestamp;pressure;altitude;pressure_sealevel;temperature;humidity
63111;BME280;49201;53.426;10.300;2022-11-15T00:01:49;101241.88;;;6.29;100.00
63111;BME280;49201;53.426;10.300;2022-11-15T00:04:33;101232.53;;;6.30;100.00
63111;BME280;49201;53.426;10.300;2022-11-15T00:07:17;101228.94;;;6.25;100.00
63111;BME280;49201;53.426;10.300;2022-11-15T00:10:01;101230.69;;;6.26;100.00
63111;BME280;49201;53.426;10.300;2022-11-15T00:12:45;101227.03;;;6.19;100.00
63111;BME280;49201;53.426;10.300;2022-11-15T00:15:29;101232.84;;;6.17;100.00
63111;BME280;49201;53.426;10.300;2022-11-15T00:18:14;101227.69;;;6.15;100.00
63111;BME280;49201;53.426;10.300;2022-11-15T00:21:07;101220.72;;;6.11;100.00
63111;BME280;49201;53.426;10.300;2022-11-15T00:23:51;101233.31;;;6.08;100.00
63111;BME280;49201;53.426;10.300;2022-11-15T00:26:35;101225.69;;;6.08;100.00
63111;BME280;49201;53.426;10.300;2022-11-15T00:29:19;101233.31;;;6.08;100.00
63111;BME280;49201;53.426;10.300;2022-11-15T00:32:03;101238.31;;;6.07;100.00
63111;BME280;49201;53.426;10.300;2022-11-15T00:34:47;101235.06;;;6.09;100.00
63111;BME280;49201;53.426;10.300;2022-11-15T00:37:31;101235.06;;;6.09;100.00
63111;BME280;49201;53.426;10.300;2022-11-15T00:40:15;101244.50;;;6.12;100.00
63111;BME280;49201;53.426;10.300;2022-11-15T00:42:59;101243.03;;;6.17;100.00
63111;BME280;49201;53.426;10.300;2022-11-15T00:45:43;101229.50;;;6.18;100.00
63111;BME280;49201;53.426;10.300;2022-11-15T00:48:27;101239.00;;;6.22;100.00
63111;BME280;49201;53.426;10.300;2022-11-15T00:51:11;101244.00;;;6.20;100.00
63111;BME280;49201;53.426;10.300;2022-11-15T00:53:55;101243.28;;;6.23;100.00
63111;BME280;49201;53.426;10.300;2022-11-15T00:56:38;101234.09;;;6.26;100.00
63111;BME280;49201;53.426;10.300;2022-11-15T00:59:22;101236.78;;;6.29;100.00
63111;BME280;49201;53.426;10.300;2022-11-15T01:02:06;101239.31;;;6.29;100.00
63111;BME280;49201;53.426;10.300;2022-11-15T01:04:50;101234.16;;;6.28;100.00
63111;BME280;49201;53.426;10.300;2022-11-15T01:07:34;101234.03;;;6.25;100.00
63111;BME280;49201;53.426;10.300;2022-11-15T01:10:18;101230.50;;;6.21;100.00
63111;BME280;49201;53.426;10.300;2022-11-15T01:13:03;101226.97;;;6.18;100.00
63111;BME280;49201;53.426;10.300;2022-11-15T01:15:47;101233.63;;;6.16;100.00
63111;BME280;49201;53.426;10.300;2022-11-15T01:18:31;101228.50;;;6.14;100.00
63111;BME280;49201;53.426;10.300;2022-11-15T01:21:17;101234.25;;;6.10;100.00
63111;BME280;49201;53.426;10.300;2022-11-15T01:24:01;101229.09;;;6.09;100.00
63111;BME280;49201;53.426;10.300;2022-11-15T01:26:45;101222.88;;;6.02;100.00
63111;BME280;49201;53.426;10.300;2022-11-15T01:29:29;101219.34;;;5.99;100.00
63111;BME280;49201;53.426;10.300;2022-11-15T01:32:14;101217.41;;;5.93;100.00
63111;BME280;49201;53.426;10.300;2022-11-15T01:34:57;101207.97;;;5.91;100.00
63111;BME280;49201;53.426;10.300;2022-11-15T01:37:41;101206.84;;;5.84;100.00
63111;BME280;49201;53.426;10.300;2022-11-15T01:40:25;101202.50;;;5.82;100.00
63111;BME280;49201;53.426;10.300;2022-11-15T01:43:20;101207.34;;;5.77;100.00
63111;BME280;49201;53.426;10.300;2022-11-15T01:49:05;101203.44;;;5.66;100.00
63111;BME280;49201;53.426;10.300;2022-11-15T01:51:50;101199.69;;;5.58;99.63
63111;BME280;49201;53.426;10.300;2022-11-15T01:54:35;101193.41;;;5.50;99.67
63111;BME280;49201;53.426;10.300;2022-11-15T01:57:19;101197.28;;;5.42;99.32
63111;BME280;49201;53.426;10.300;2022-11-15T02:00:05;101197.13;;;5.39;98.76
63111;BME280;49201;53.426;10.300;2022-11-15T02:02:49;101196.84;;;5.33;99.15
63111;BME280;49201;53.426;10.300;2022-11-15T02:05:35;101189.91;;;5.29;98.74
63111;BME280;49201;53.426;10.300;2022-11-15T02:08:20;101182.88;;;5.24;99.16
63111;BME280;49201;53.426;10.300;2022-11-15T02:11:07;101196.97;;;5.17;99.10
63111;BME280;49201;53.426;10.300;2022-11-15T02:13:52;101196.28;;;5.21;99.19
63111;BME280;49201;53.426;10.300;2022-11-15T02:17:02;101183.41;;;5.17;99.07
63111;BME280;49201;53.426;10.300;2022-11-15T02:23:31;101183.81;;;5.26;100.00
63111;BME280;49201;53.426;10.300;2022-11-15T02:29:24;101179.41;;;5.22;100.00
63111;BME280;49201;53.426;10.300;2022-11-15T02:32:22;101174.63;;;5.10;100.00
63111;BME280;49201;53.426;10.300;2022-11-15T02:38:21;101167.91;;;4.93;100.00
63111;BME280;49201;53.426;10.300;2022-11-15T02:41:13;101166.75;;;4.87;100.00
63111;BME280;49201;53.426;10.300;2022-11-15T02:44:12;101164.94;;;4.84;100.00
63111;BME280;49201;53.426;10.300;2022-11-15T02:47:06;101166.19;;;4.75;99.94
63111;BME280;49201;53.426;10.300;2022-11-15T02:50:00;101174.59;;;4.74;99.25
63111;BME280;49201;53.426;10.300;2022-11-15T02:52:48;101169.44;;;4.72;99.22
63111;BME280;49201;53.426;10.300;2022-11-15T02:55:38;101175.81;;;4.64;98.87
63111;BME280;49201;53.426;10.300;2022-11-15T03:01:21;101171.75;;;4.50;98.47
63111;BME280;49201;53.426;10.300;2022-11-15T03:05:01;101170.84;;;4.50;98.13
63111;BME280;49201;53.426;10.300;2022-11-15T03:07:29;101162.88;;;4.42;98.11
63111;BME280;49201;53.426;10.300;2022-11-15T03:13:30;101173.75;;;4.40;98.69
63111;BME280;49201;53.426;10.300;2022-11-15T03:16:20;101166.88;;;4.37;98.80
63111;BME280;49201;53.426;10.300;2022-11-15T03:19:26;101165.50;;;4.44;99.20
63111;BME280;49201;53.426;10.300;2022-11-15T03:22:16;101159.16;;;4.52;99.95
63111;BME280;49201;53.426;10.300;2022-11-15T03:25:05;101157.78;;;4.58;100.00
63111;BME280;49201;53.426;10.300;2022-11-15T03:27:52;101157.91;;;4.61;100.00
63111;BME280;49201;53.426;10.300;2022-11-15T03:30:38;101157.34;;;4.67;100.00
63111;BME280;49201;53.426;10.300;2022-11-15T03:33:24;101159.13;;;4.69;100.00
63111;BME280;49201;53.426;10.300;2022-11-15T03:36:08;101154.94;;;4.70;100.00
63111;BME280;49201;53.426;10.300;2022-11-15T03:38:54;101157.63;;;4.73;100.00
63111;BME280;49201;53.426;10.300;2022-11-15T03:42:02;101150.16;;;4.76;100.00
63111;BME280;49201;53.426;10.300;2022-11-15T03:44:58;101162.91;;;4.77;100.00
63111;BME280;49201;53.426;10.300;2022-11-15T03:47:52;101159.50;;;4.77;100.00
63111;BME280;49201;53.426;10.300;2022-11-15T03:50:38;101153.41;;;4.73;100.00
63111;BME280;49201;53.426;10.300;2022-11-15T03:53:22;101155.38;;;4.79;100.00
63111;BME280;49201;53.426;10.300;2022-11-15T03:56:06;101151.16;;;4.79;100.00
63111;BME280;49201;53.426;10.300;2022-11-15T03:58:50;101153.94;;;4.84;100.00
63111;BME280;49201;53.426;10.300;2022-11-15T04:01:34;101148.06;;;4.85;100.00
63111;BME280;49201;53.426;10.300;2022-11-15T04:04:18;101150.59;;;4.85;100.00
63111;BME280;49201;53.426;10.300;2022-11-15T04:07:02;101148.78;;;4.82;100.00
63111;BME280;49201;53.426;10.300;2022-11-15T04:09:46;101152.03;;;4.80;100.00
63111;BME280;49201;53.426;10.300;2022-11-15T04:12:46;101147.91;;;4.82;100.00
63111;BME280;49201;53.426;10.300;2022-11-15T04:15:31;101147.16;;;4.84;100.00
63111;BME280;49201;53.426;10.300;2022-11-15T04:18:16;101144.88;;;4.89;100.00
63111;BME280;49201;53.426;10.300;2022-11-15T04:20:59;101137.34;;;4.90;100.00
63111;BME280;49201;53.426;10.300;2022-11-15T04:24:03;101134.91;;;4.93;100.00
63111;BME280;49201;53.426;10.300;2022-11-15T04:26:49;101130.50;;;5.07;100.00
63111;BME280;49201;53.426;10.300;2022-11-15T04:29:34;101131.22;;;5.04;100.00
63111;BME280;49201;53.426;10.300;2022-11-15T04:32:18;101136.41;;;5.07;100.00
63111;BME280;49201;53.426;10.300;2022-11-15T04:35:02;101138.19;;;5.08;100.00
63111;BME280;49201;53.426;10.300;2022-11-15T04:37:47;101139.19;;;5.12;100.00
63111;BME280;49201;53.426;10.300;2022-11-15T04:40:31;101149.59;;;5.18;100.00
63111;BME280;49201;53.426;10.300;2022-11-15T04:43:15;101146.63;;;5.26;100.00
63111;BME280;49201;53.426;10.300;2022-11-15T04:45:59;101149.53;;;5.35;100.00
63111;BME280;49201;53.426;10.300;2022-11-15T04:48:42;101150.91;;;5.46;100.00
63111;BME280;49201;53.426;10.300;2022-11-15T04:51:26;101157.31;;;5.57;100.00
63111;BME280;49201;53.426;10.300;2022-11-15T04:54:10;101154.59;;;5.72;100.00
63111;BME280;49201;53.426;10.300;2022-11-15T04:56:54;101151.59;;;5.80;100.00
63111;BME280;49201;53.426;10.300;2022-11-15T04:59:38;101155.28;;;5.87;100.00
63111;BME280;49201;53.426;10.300;2022-11-15T05:02:22;101152.81;;;5.88;100.00
63111;BME280;49201;53.426;10.300;2022-11-15T05:05:06;101146.25;;;5.93;100.00
63111;BME280;49201;53.426;10.300;2022-11-15T05:07:51;101145.66;;;5.99;100.00
63111;BME280;49201;53.426;10.300;2022-11-15T05:10:35;101143.28;;;6.03;100.00
63111;BME280;49201;53.426;10.300;2022-11-15T05:13:19;101138.34;;;6.06;100.00
63111;BME280;49201;53.426;10.300;2022-11-15T05:16:03;101142.75;;;6.10;100.00
63111;BME280;49201;53.426;10.300;2022-11-15T05:18:50;101143.75;;;6.14;100.00
63111;BME280;49201;53.426;10.300;2022-11-15T05:21:35;101136.94;;;6.13;100.00
63111;BME280;49201;53.426;10.300;2022-11-15T05:24:19;101135.13;;;6.10;100.00
63111;BME280;49201;53.426;10.300;2022-11-15T05:27:03;101135.88;;;6.08;100.00
63111;BME280;49201;53.426;10.300;2022-11-15T05:29:47;101129.75;;;6.04;100.00
63111;BME280;49201;53.426;10.300;2022-11-15T05:32:31;101133.00;;;6.00;100.00
63111;BME280;49201;53.426;10.300;2022-11-15T05:35:32;101132.94;;;5.99;100.00
63111;BME280;49201;53.426;10.300;2022-11-15T05:38:17;101126.13;;;5.98;100.00
63111;BME280;49201;53.426;10.300;2022-11-15T05:41:02;101125.19;;;5.96;100.00
63111;BME280;49201;53.426;10.300;2022-11-15T05:43:48;101123.44;;;5.95;100.00
63111;BME280;49201;53.426;10.300;2022-11-15T05:46:34;101132.72;;;5.94;100.00
63111;BME280;49201;53.426;10.300;2022-11-15T05:49:22;101127.66;;;5.94;100.00
63111;BME280;49201;53.426;10.300;2022-11-15T05:52:09;101128.47;;;5.93;100.00
63111;BME280;49201;53.426;10.300;2022-11-15T05:54:57;101126.81;;;5.94;100.00
63111;BME280;49201;53.426;10.300;2022-11-15T05:57:41;101132.88;;;5.97;100.00
63111;BME280;49201;53.426;10.300;2022-11-15T06:00:25;101132.94;;;5.99;100.00
63111;BME280;49201;53.426;10.300;2022-11-15T06:03:09;101134.75;;;6.01;100.00
63111;BME280;49201;53.426;10.300;2022-11-15T06:05:54;101143.28;;;6.03;100.00
63111;BME280;49201;53.426;10.300;2022-11-15T06:08:38;101141.63;;;6.04;100.00
63111;BME280;49201;53.426;10.300;2022-11-15T06:11:22;101142.53;;;6.06;100.00
63111;BME280;49201;53.426;10.300;2022-11-15T06:14:06;101147.69;;;6.07;100.00
63111;BME280;49201;53.426;10.300;2022-11-15T06:16:50;101146.13;;;6.11;100.00
63111;BME280;49201;53.426;10.300;2022-11-15T06:19:34;101142.75;;;6.10;100.00
63111;BME280;49201;53.426;10.300;2022-11-15T06:22:18;101147.03;;;6.11;100.00
63111;BME280;49201;53.426;10.300;2022-11-15T06:25:02;101156.44;;;6.14;100.00
63111;BME280;49201;53.426;10.300;2022-11-15T06:27:51;101161.66;;;6.17;100.00
63111;BME280;49201;53.426;10.300;2022-11-15T06:30:35;101159.22;;;6.20;100.00
63111;BME280;49201;53.426;10.300;2022-11-15T06:33:19;101162.72;;;6.22;100.00
63111;BME280;49201;53.426;10.300;2022-11-15T06:36:09;101161.97;;;6.24;100.00
63111;BME280;49201;53.426;10.300;2022-11-15T06:38:53;101173.06;;;6.26;100.00
63111;BME280;49201;53.426;10.300;2022-11-15T06:41:37;101163.84;;;6.28;100.00
63111;BME280;49201;53.426;10.300;2022-11-15T06:44:21;101173.28;;;6.31;100.00
63111;BME280;49201;53.426;10.300;2022-11-15T06:47:05;101173.38;;;6.34;100.00
63111;BME280;49201;53.426;10.300;2022-11-15T06:49:49;101170.97;;;6.37;100.00
63111;BME280;49201;53.426;10.300;2022-11-15T06:52:33;101175.31;;;6.39;100.00
63111;BME280;49201;53.426;10.300;2022-11-15T06:55:17;101174.72;;;6.45;100.00
63111;BME280;49201;53.426;10.300;2022-11-15T06:58:01;101166.13;;;6.43;100.00
63111;BME280;49201;53.426;10.300;2022-11-15T07:00:45;101173.97;;;6.47;100.00
63111;BME280;49201;53.426;10.300;2022-11-15T07:03:29;101168.94;;;6.49;100.00
63111;BME280;49201;53.426;10.300;2022-11-15T07:06:14;101163.97;;;6.52;100.00
63111;BME280;49201;53.426;10.300;2022-11-15T07:08:58;101163.28;;;6.56;100.00
63111;BME280;49201;53.426;10.300;2022-11-15T07:11:42;101171.88;;;6.58;100.00
63111;BME280;49201;53.426;10.300;2022-11-15T07:14:26;101180.47;;;6.61;100.00
63111;BME280;49201;53.426;10.300;2022-11-15T07:17:10;101182.22;;;6.62;100.00
63111;BME280;49201;53.426;10.300;2022-11-15T07:19:54;101177.19;;;6.64;100.00
63111;BME280;49201;53.426;10.300;2022-11-15T07:22:38;101168.00;;;6.67;100.00
63111;BME280;49201;53.426;10.300;2022-11-15T07:25:22;101178.16;;;6.67;100.00
63111;BME280;49201;53.426;10.300;2022-11-15T07:28:07;101174.88;;;6.70;100.00
63111;BME280;49201;53.426;10.300;2022-11-15T07:30:51;101188.59;;;6.73;100.00
63111;BME280;49201;53.426;10.300;2022-11-15T07:33:35;101182.75;;;6.76;100.00
63111;BME280;49201;53.426;10.300;2022-11-15T07:36:19;101185.34;;;6.77;100.00
63111;BME280;49201;53.426;10.300;2022-11-15T07:39:03;101187.22;;;6.81;100.00
63111;BME280;49201;53.426;10.300;2022-11-15T07:41:47;101178.75;;;6.81;100.00
63111;BME280;49201;53.426;10.300;2022-11-15T07:44:32;101181.50;;;6.87;100.00
63111;BME280;49201;53.426;10.300;2022-11-15T07:47:15;101179.81;;;6.87;100.00
63111;BME280;49201;53.426;10.300;2022-11-15T07:50:00;101178.34;;;6.92;100.00
63111;BME280;49201;53.426;10.300;2022-11-15T07:52:44;101180.91;;;6.92;100.00
63111;BME280;49201;53.426;10.300;2022-11-15T07:55:28;101176.72;;;6.94;100.00
63111;BME280;49201;53.426;10.300;2022-11-15T07:58:13;101195.66;;;7.01;100.00
63111;BME280;49201;53.426;10.300;2022-11-15T08:00:57;101186.38;;;7.03;100.00
63111;BME280;49201;53.426;10.300;2022-11-15T08:03:41;101188.25;;;7.07;100.00
63111;BME280;49201;53.426;10.300;2022-11-15T08:06:25;101190.78;;;7.07;100.00
63111;BME280;49201;53.426;10.300;2022-11-15T08:09:09;101188.38;;;7.10;100.00
63111;BME280;49201;53.426;10.300;2022-11-15T08:11:53;101185.13;;;7.14;100.00
63111;BME280;49201;53.426;10.300;2022-11-15T08:14:36;101186.09;;;7.17;100.00
63111;BME280;49201;53.426;10.300;2022-11-15T08:17:21;101185.34;;;7.20;100.00
63111;BME280;49201;53.426;10.300;2022-11-15T08:20:05;101185.47;;;7.23;100.00
63111;BME280;49201;53.426;10.300;2022-11-15T08:22:50;101182.19;;;7.25;100.00
63111;BME280;49201;53.426;10.300;2022-11-15T08:25:34;101185.59;;;7.26;100.00
63111;BME280;49201;53.426;10.300;2022-11-15T08:28:19;101184.81;;;7.28;100.00
63111;BME280;49201;53.426;10.300;2022-11-15T08:31:03;101185.88;;;7.33;100.00
63111;BME280;49201;53.426;10.300;2022-11-15T08:33:47;101175.03;;;7.39;100.00
63111;BME280;49201;53.426;10.300;2022-11-15T08:36:31;101171.00;;;7.44;100.00
63111;BME280;49201;53.426;10.300;2022-11-15T08:39:16;101163.63;;;7.51;100.00
63111;BME280;49201;53.426;10.300;2022-11-15T08:42:00;101170.78;;;7.61;99.57
63111;BME280;49201;53.426;10.300;2022-11-15T08:44:44;101166.00;;;7.70;99.28
63111;BME280;49201;53.426;10.300;2022-11-15T08:47:28;101156.84;;;7.99;99.02
63111;BME280;49201;53.426;10.300;2022-11-15T08:50:13;101167.63;;;8.39;97.79
63111;BME280;49201;53.426;10.300;2022-11-15T08:52:57;101161.34;;;8.81;95.71
63111;BME280;49201;53.426;10.300;2022-11-15T08:55:41;101161.06;;;8.72;94.76
63111;BME280;49201;53.426;10.300;2022-11-15T08:58:25;101157.34;;;8.89;94.44
63111;BME280;49201;53.426;10.300;2022-11-15T09:01:17;101143.81;;;9.19;93.90
63111;BME280;49201;53.426;10.300;2022-11-15T09:04:02;101143.69;;;9.74;92.21
63111;BME280;49201;53.426;10.300;2022-11-15T09:06:47;101139.78;;;10.17;89.68
63111;BME280;49201;53.426;10.300;2022-11-15T09:09:32;101149.44;;;10.29;88.56
63111;BME280;49201;53.426;10.300;2022-11-15T09:12:16;101143.84;;;10.43;87.82
63111;BME280;49201;53.426;10.300;2022-11-15T09:15:00;101127.22;;;12.77;81.36
63111;BME280;49201;53.426;10.300;2022-11-15T09:17:44;101121.47;;;14.36;70.97
63111;BME280;49201;53.426;10.300;2022-11-15T09:20:27;101119.69;;;15.62;66.32
63111;BME280;49201;53.426;10.300;2022-11-15T09:23:12;101131.91;;;16.40;62.05
63111;BME280;49201;53.426;10.300;2022-11-15T09:26:03;101135.38;;;16.54;61.13
63111;BME280;49201;53.426;10.300;2022-11-15T09:28:47;101141.41;;;16.71;60.44
63111;BME280;49201;53.426;10.300;2022-11-15T09:31:32;101144.84;;;16.40;60.49
63111;BME280;49201;53.426;10.300;2022-11-15T09:34:16;101135.28;;;17.09;58.61
63111;BME280;49201;53.426;10.300;2022-11-15T09:37:00;101145.56;;;15.82;61.61
63111;BME280;49201;53.426;10.300;2022-11-15T09:39:44;101145.50;;;15.71;62.75
63111;BME280;49201;53.426;10.300;2022-11-15T09:51:33;101131.78;;;17.33;57.15
63111;BME280;49201;53.426;10.300;2022-11-15T09:56:39;101149.06;;;17.22;58.25
63111;BME280;49201;53.426;10.300;2022-11-15T09:59:13;101146.66;;;14.69;65.75
63111;BME280;49201;53.426;10.300;2022-11-15T10:04:15;101146.53;;;14.54;68.68
63111;BME280;49201;53.426;10.300;2022-11-15T10:06:45;101135.75;;;15.07;66.66
63111;BME280;49201;53.426;10.300;2022-11-15T10:09:16;101127.56;;;16.10;62.67
63111;BME280;49201;53.426;10.300;2022-11-15T10:11:42;101122.25;;;15.64;64.14
63111;BME280;49201;53.426;10.300;2022-11-15T10:14:18;101121.56;;;16.73;62.21
63111;BME280;49201;53.426;10.300;2022-11-15T10:19:36;101102.69;;;18.41;54.84
63111;BME280;49201;53.426;10.300;2022-11-15T10:24:44;101093.09;;;18.53;53.55
63111;BME280;49201;53.426;10.300;2022-11-15T10:27:13;101100.81;;;16.95;56.58
63111;BME280;49201;53.426;10.300;2022-11-15T10:29:44;101105.16;;;16.32;60.67
63111;BME280;49201;53.426;10.300;2022-11-15T10:32:11;101112.47;;;14.98;66.31
63111;BME280;49201;53.426;10.300;2022-11-15T10:34:37;101112.00;;;15.79;64.95
63111;BME280;49201;53.426;10.300;2022-11-15T10:37:03;101108.25;;;15.11;66.97
63111;BME280;49201;53.426;10.300;2022-11-15T10:39:29;101112.97;;;14.45;67.56
63111;BME280;49201;53.426;10.300;2022-11-15T10:41:55;101117.34;;;13.71;70.56
63111;BME280;49201;53.426;10.300;2022-11-15T10:44:29;101110.00;;;13.30;72.75
63111;BME280;49201;53.426;10.300;2022-11-15T10:49:21;101106.19;;;13.02;75.16
63111;BME280;49201;53.426;10.300;2022-11-15T10:54:44;101095.66;;;12.85;76.94
63111;BME280;49201;53.426;10.300;2022-11-15T10:59:45;101089.25;;;12.59;78.70
63111;BME280;49201;53.426;10.300;2022-11-15T11:02:28;101091.00;;;12.60;78.64
63111;BME280;49201;53.426;10.300;2022-11-15T11:04:54;101079.00;;;12.61;79.47
63111;BME280;49201;53.426;10.300;2022-11-15T11:07:22;101079.56;;;12.42;79.97
63111;BME280;49201;53.426;10.300;2022-11-15T11:10:18;101075.06;;;12.29;80.79
63111;BME280;49201;53.426;10.300;2022-11-15T11:12:44;101071.50;;;12.19;81.89
63111;BME280;49201;53.426;10.300;2022-11-15T11:15:12;101075.84;;;12.22;81.84
63111;BME280;49201;53.426;10.300;2022-11-15T11:18:03;101064.84;;;12.30;82.45
63111;BME280;49201;53.426;10.300;2022-11-15T11:20:52;101063.97;;;12.28;82.31
63111;BME280;49201;53.426;10.300;2022-11-15T11:23:22;101063.06;;;12.26;82.34
63111;BME280;49201;53.426;10.300;2022-11-15T11:32:03;101063.81;;;12.19;83.09
63111;BME280;49201;53.426;10.300;2022-11-15T11:37:45;101056.53;;;11.94;84.01
63111;BME280;49201;53.426;10.300;2022-11-15T11:40:29;101062.59;;;11.99;84.04
63111;BME280;49201;53.426;10.300;2022-11-15T11:50:28;101049.00;;;12.05;84.46
63111;BME280;49201;53.426;10.300;2022-11-15T11:52:59;101043.94;;;12.08;85.07
63111;BME280;49201;53.426;10.300;2022-11-15T11:58:19;101035.66;;;12.25;84.79
63111;BME280;49201;53.426;10.300;2022-11-15T12:00:51;101036.66;;;12.35;84.07
63111;BME280;49201;53.426;10.300;2022-11-15T12:06:01;101036.88;;;12.48;84.39
63111;BME280;49201;53.426;10.300;2022-11-15T12:08:53;101032.53;;;12.46;84.22
63111;BME280;49201;53.426;10.300;2022-11-15T12:14:33;101020.66;;;12.52;84.25
63111;BME280;49201;53.426;10.300;2022-11-15T12:17:01;101026.78;;;12.62;84.56
63111;BME280;49201;53.426;10.300;2022-11-15T12:19:28;101013.28;;;12.76;83.85
63111;BME280;49201;53.426;10.300;2022-11-15T12:22:00;101008.38;;;12.94;82.63
63111;BME280;49201;53.426;10.300;2022-11-15T12:24:42;101001.13;;;13.31;81.92
63111;BME280;49201;53.426;10.300;2022-11-15T12:27:52;100996.25;;;13.56;80.66
63111;BME280;49201;53.426;10.300;2022-11-15T12:30:21;100991.16;;;13.64;79.72
63111;BME280;49201;53.426;10.300;2022-11-15T12:35:37;100990.06;;;14.36;76.96
63111;BME280;49201;53.426;10.300;2022-11-15T12:38:04;100995.41;;;14.66;75.37
63111;BME280;49201;53.426;10.300;2022-11-15T12:40:32;100988.69;;;15.04;73.96
63111;BME280;49201;53.426;10.300;2022-11-15T12:58:43;100985.59;;;14.17;76.70
63111;BME280;49201;53.426;10.300;2022-11-15T13:01:10;100994.75;;;13.79;78.71
63111;BME280;49201;53.426;10.300;2022-11-15T13:06:38;100991.31;;;13.79;79.41
63111;BME280;49201;53.426;10.300;2022-11-15T13:09:03;100981.91;;;13.81;79.14
63111;BME280;49201;53.426;10.300;2022-11-15T13:11:49;100983.47;;;13.68;79.50
63111;BME280;49201;53.426;10.300;2022-11-15T13:27:53;100938.50;;;13.29;82.02
63111;BME280;49201;53.426;10.300;2022-11-15T13:30:25;100930.75;;;13.24;82.31
63111;BME280;49201;53.426;10.300;2022-11-15T13:32:52;100937.63;;;13.25;81.39
63111;BME280;49201;53.426;10.300;2022-11-15T13:35:23;100934.19;;;13.26;81.85
63111;BME280;49201;53.426;10.300;2022-11-15T13:37:50;100929.84;;;13.19;81.54
63111;BME280;49201;53.426;10.300;2022-11-15T13:40:28;100922.16;;;13.19;82.30
63111;BME280;49201;53.426;10.300;2022-11-15T13:42:58;100923.78;;;13.13;82.56
63111;BME280;49201;53.426;10.300;2022-11-15T13:45:24;100917.84;;;13.18;82.33
63111;BME280;49201;53.426;10.300;2022-11-15T13:47:58;100926.38;;;13.17;82.68
63111;BME280;49201;53.426;10.300;2022-11-15T13:50:27;100917.94;;;13.30;82.40
63111;BME280;49201;53.426;10.300;2022-11-15T13:52:58;100914.53;;;13.31;81.79
63111;BME280;49201;53.426;10.300;2022-11-15T13:55:26;100914.44;;;13.19;82.37
63111;BME280;49201;53.426;10.300;2022-11-15T13:57:58;100917.09;;;13.28;82.28
63111;BME280;49201;53.426;10.300;2022-11-15T14:00:44;100917.13;;;13.33;82.42
63111;BME280;49201;53.426;10.300;2022-11-15T14:05:39;100917.34;;;13.55;81.41
63111;BME280;49201;53.426;10.300;2022-11-15T14:08:23;100910.81;;;14.05;78.98
63111;BME280;49201;53.426;10.300;2022-11-15T14:13:34;100912.22;;;15.32;72.85
63111;BME280;49201;53.426;10.300;2022-11-15T14:16:17;100908.81;;;15.79;70.77
63111;BME280;49201;53.426;10.300;2022-11-15T14:18:52;100912.28;;;15.74;70.75
63111;BME280;49201;53.426;10.300;2022-11-15T14:21:19;100919.16;;;15.69;70.94
63111;BME280;49201;53.426;10.300;2022-11-15T14:23:45;100916.28;;;14.46;74.23
63111;BME280;49201;53.426;10.300;2022-11-15T14:26:29;100913.47;;;14.16;76.82
63111;BME280;49201;53.426;10.300;2022-11-15T14:28:54;100915.97;;;14.01;77.64
63111;BME280;49201;53.426;10.300;2022-11-15T14:31:20;100910.66;;;13.81;78.41
63111;BME280;49201;53.426;10.300;2022-11-15T14:33:46;100911.41;;;13.65;79.39
63111;BME280;49201;53.426;10.300;2022-11-15T14:36:21;100916.44;;;13.49;79.95
63111;BME280;49201;53.426;10.300;2022-11-15T14:38:47;100900.00;;;13.38;80.94
63111;BME280;49201;53.426;10.300;2022-11-15T14:41:34;100901.69;;;13.30;81.13
63111;BME280;49201;53.426;10.300;2022-11-15T14:44:03;100900.75;;;13.26;81.44
63111;BME280;49201;53.426;10.300;2022-11-15T14:46:28;100888.66;;;13.15;81.91
63111;BME280;49201;53.426;10.300;2022-11-15T14:48:54;100890.31;;;13.10;82.48
63111;BME280;49201;53.426;10.300;2022-11-15T14:51:19;100889.28;;;12.93;83.08
63111;BME280;49201;53.426;10.300;2022-11-15T14:53:46;100890.78;;;12.75;83.75
63111;BME280;49201;53.426;10.300;2022-11-15T14:56:12;100889.84;;;12.69;83.98
63111;BME280;49201;53.426;10.300;2022-11-15T14:58:38;100894.00;;;12.59;84.45
63111;BME280;49201;53.426;10.300;2022-11-15T15:01:25;100892.19;;;12.51;84.98
63111;BME280;49201;53.426;10.300;2022-11-15T15:03:52;100889.56;;;12.45;85.51
63111;BME280;49201;53.426;10.300;2022-11-15T15:06:19;100892.88;;;12.38;85.52
63111;BME280;49201;53.426;10.300;2022-11-15T15:08:45;100900.50;;;12.30;85.71
63111;BME280;49201;53.426;10.300;2022-11-15T15:11:18;100896.03;;;12.16;86.49
63111;BME280;49201;53.426;10.300;2022-11-15T15:13:45;100901.94;;;12.10;87.11
63111;BME280;49201;53.426;10.300;2022-11-15T15:16:11;100902.59;;;11.97;87.43
63111;BME280;49201;53.426;10.300;2022-11-15T15:18:36;100896.56;;;11.94;88.02
63111;BME280;49201;53.426;10.300;2022-11-15T15:21:02;100892.16;;;11.84;88.14
63111;BME280;49201;53.426;10.300;2022-11-15T15:23:32;100896.28;;;11.76;88.17
63111;BME280;49201;53.426;10.300;2022-11-15T15:25:58;100897.00;;;11.66;88.33
63111;BME280;49201;53.426;10.300;2022-11-15T15:28:23;100895.06;;;11.54;88.93
63111;BME280;49201;53.426;10.300;2022-11-15T15:30:49;100894.94;;;11.48;89.38
63111;BME280;49201;53.426;10.300;2022-11-15T15:33:15;100901.69;;;11.43;89.90
63111;BME280;49201;53.426;10.300;2022-11-15T15:35:41;100896.53;;;11.42;89.81
63111;BME280;49201;53.426;10.300;2022-11-15T15:38:11;100899.91;;;11.39;89.80
63111;BME280;49201;53.426;10.300;2022-11-15T15:40:37;100897.19;;;11.29;89.93
63111;BME280;49201;53.426;10.300;2022-11-15T15:43:03;100899.59;;;11.20;90.27